sensor_id;sensor_type;location;lat;lon;timestamp;P1;durP1;ratioP1;P2;durP2;ratioP2
57635;SDS011;43465;50.728;4.160;2022-08-02T00:00:08;7.10;;;2.80;;
57635;SDS011;43465;50.728;4.160;2022-08-02T00:02:35;4.57;;;2.53;;
57635;SDS011;43465;50.728;4.160;2022-08-02T00:05:00;4.70;;;2.58;;
57635;SDS011;43465;50.728;4.160;2022-08-02T00:07:26;4.95;;;2.80;;
57635;SDS011;43465;50.728;4.160;2022-08-02T00:09:52;4.07;;;2.72;;
57635;SDS011;43465;50.728;4.160;2022-08-02T00:12:17;3.35;;;2.67;;
57635;SDS011;43465;50.728;4.160;2022-08-02T00:14:43;10.48;;;3.25;;
57635;SDS011;43465;50.728;4.160;2022-08-02T00:17:08;6.35;;;3.03;;
57635;SDS011;43465;50.728;4.160;2022-08-02T00:19:34;4.20;;;2.85;;
57635;SDS011;43465;50.728;4.160;2022-08-02T00:22:00;5.70;;;3.08;;
57635;SDS011;43465;50.728;4.160;2022-08-02T00:24:25;4.07;;;2.65;;
57635;SDS011;43465;50.728;4.160;2022-08-02T00:26:51;7.95;;;3.20;;
57635;SDS011;43465;50.728;4.160;2022-08-02T00:29:17;5.80;;;3.60;;
57635;SDS011;43465;50.728;4.160;2022-08-02T00:31:42;7.32;;;3.08;;
57635;SDS011;43465;50.728;4.160;2022-08-02T00:34:08;8.35;;;3.08;;
57635;SDS011;43465;50.728;4.160;2022-08-02T00:36:33;3.90;;;3.08;;
57635;SDS011;43465;50.728;4.160;2022-08-02T00:38:59;5.40;;;3.25;;
57635;SDS011;43465;50.728;4.160;2022-08-02T00:41:25;7.15;;;3.47;;
57635;SDS011;43465;50.728;4.160;2022-08-02T00:43:51;7.13;;;3.30;;
57635;SDS011;43465;50.728;4.160;2022-08-02T00:46:17;6.20;;;3.55;;
57635;SDS011;43465;50.728;4.160;2022-08-02T00:48:44;5.22;;;4.00;;
57635;SDS011;43465;50.728;4.160;2022-08-02T00:51:10;5.88;;;3.40;;
57635;SDS011;43465;50.728;4.160;2022-08-02T00:53:36;4.60;;;3.72;;
57635;SDS011;43465;50.728;4.160;2022-08-02T00:56:03;8.85;;;3.15;;
57635;SDS011;43465;50.728;4.160;2022-08-02T00:58:28;5.03;;;3.28;;
57635;SDS011;43465;50.728;4.160;2022-08-02T01:00:54;4.63;;;3.05;;
57635;SDS011;43465;50.728;4.160;2022-08-02T01:03:24;3.53;;;3.22;;
57635;SDS011;43465;50.728;4.160;2022-08-02T01:05:50;4.35;;;3.30;;
57635;SDS011;43465;50.728;4.160;2022-08-02T01:08:16;5.10;;;3.35;;
57635;SDS011;43465;50.728;4.160;2022-08-02T01:10:45;5.05;;;3.60;;
57635;SDS011;43465;50.728;4.160;2022-08-02T01:13:11;4.85;;;3.33;;
57635;SDS011;43465;50.728;4.160;2022-08-02T01:15:37;7.40;;;3.40;;
57635;SDS011;43465;50.728;4.160;2022-08-02T01:18:09;4.10;;;3.63;;
57635;SDS011;43465;50.728;4.160;2022-08-02T01:23:44;4.90;;;3.90;;
57635;SDS011;43465;50.728;4.160;2022-08-02T01:37:00;5.00;;;4.60;;
57635;SDS011;43465;50.728;4.160;2022-08-02T01:39:32;7.85;;;4.97;;
57635;SDS011;43465;50.728;4.160;2022-08-02T01:41:59;6.45;;;5.55;;
57635;SDS011;43465;50.728;4.160;2022-08-02T01:44:27;7.15;;;5.90;;
57635;SDS011;43465;50.728;4.160;2022-08-02T01:46:57;7.80;;;5.63;;
57635;SDS011;43465;50.728;4.160;2022-08-02T01:49:26;6.57;;;6.03;;
57635;SDS011;43465;50.728;4.160;2022-08-02T01:51:54;6.32;;;5.72;;
57635;SDS011;43465;50.728;4.160;2022-08-02T01:54:41;7.60;;;6.00;;
57635;SDS011;43465;50.728;4.160;2022-08-02T01:57:09;7.22;;;6.47;;
57635;SDS011;43465;50.728;4.160;2022-08-02T01:59:36;9.07;;;6.57;;
57635;SDS011;43465;50.728;4.160;2022-08-02T02:02:03;9.88;;;6.78;;
57635;SDS011;43465;50.728;4.160;2022-08-02T02:04:33;9.20;;;6.63;;
57635;SDS011;43465;50.728;4.160;2022-08-02T02:07:01;8.98;;;6.55;;
57635;SDS011;43465;50.728;4.160;2022-08-02T02:09:28;7.72;;;6.93;;
57635;SDS011;43465;50.728;4.160;2022-08-02T02:11:56;7.53;;;6.82;;
57635;SDS011;43465;50.728;4.160;2022-08-02T02:14:24;10.77;;;7.60;;
57635;SDS011;43465;50.728;4.160;2022-08-02T02:16:51;7.68;;;6.97;;
57635;SDS011;43465;50.728;4.160;2022-08-02T02:19:17;8.00;;;7.20;;
57635;SDS011;43465;50.728;4.160;2022-08-02T02:21:46;8.30;;;7.50;;
57635;SDS011;43465;50.728;4.160;2022-08-02T02:24:11;8.75;;;7.60;;
57635;SDS011;43465;50.728;4.160;2022-08-02T02:26:37;9.45;;;7.95;;
57635;SDS011;43465;50.728;4.160;2022-08-02T02:29:06;12.02;;;8.05;;
57635;SDS011;43465;50.728;4.160;2022-08-02T02:31:34;9.85;;;8.45;;
57635;SDS011;43465;50.728;4.160;2022-08-02T02:34:03;9.05;;;7.82;;
57635;SDS011;43465;50.728;4.160;2022-08-02T02:39:02;10.68;;;8.18;;
57635;SDS011;43465;50.728;4.160;2022-08-02T02:41:30;9.70;;;8.70;;
57635;SDS011;43465;50.728;4.160;2022-08-02T02:43:57;12.18;;;8.65;;
57635;SDS011;43465;50.728;4.160;2022-08-02T02:46:26;10.65;;;9.63;;
57635;SDS011;43465;50.728;4.160;2022-08-02T02:48:55;12.43;;;9.50;;
57635;SDS011;43465;50.728;4.160;2022-08-02T02:51:24;11.05;;;9.90;;
57635;SDS011;43465;50.728;4.160;2022-08-02T02:53:50;14.02;;;10.52;;
57635;SDS011;43465;50.728;4.160;2022-08-02T02:56:17;11.27;;;10.18;;
57635;SDS011;43465;50.728;4.160;2022-08-02T02:58:44;11.88;;;10.30;;
57635;SDS011;43465;50.728;4.160;2022-08-02T03:01:12;12.20;;;10.00;;
57635;SDS011;43465;50.728;4.160;2022-08-02T03:06:31;11.02;;;9.90;;
57635;SDS011;43465;50.728;4.160;2022-08-02T03:08:57;15.38;;;11.32;;
57635;SDS011;43465;50.728;4.160;2022-08-02T03:11:23;13.07;;;10.80;;
57635;SDS011;43465;50.728;4.160;2022-08-02T03:13:54;11.68;;;10.48;;
57635;SDS011;43465;50.728;4.160;2022-08-02T03:16:24;15.55;;;11.48;;
57635;SDS011;43465;50.728;4.160;2022-08-02T03:18:52;13.68;;;11.02;;
57635;SDS011;43465;50.728;4.160;2022-08-02T03:21:18;11.90;;;10.75;;
57635;SDS011;43465;50.728;4.160;2022-08-02T03:23:44;14.48;;;11.00;;
57635;SDS011;43465;50.728;4.160;2022-08-02T03:26:10;14.98;;;11.75;;
57635;SDS011;43465;50.728;4.160;2022-08-02T03:28:36;17.35;;;11.48;;
57635;SDS011;43465;50.728;4.160;2022-08-02T03:31:02;12.70;;;11.18;;
57635;SDS011;43465;50.728;4.160;2022-08-02T03:33:27;16.55;;;10.68;;
57635;SDS011;43465;50.728;4.160;2022-08-02T03:35:55;14.35;;;11.77;;
57635;SDS011;43465;50.728;4.160;2022-08-02T03:38:23;13.20;;;10.73;;
57635;SDS011;43465;50.728;4.160;2022-08-02T03:40:50;14.68;;;10.80;;
57635;SDS011;43465;50.728;4.160;2022-08-02T03:43:17;15.07;;;11.02;;
57635;SDS011;43465;50.728;4.160;2022-08-02T03:45:46;13.55;;;11.25;;
57635;SDS011;43465;50.728;4.160;2022-08-02T03:48:13;13.35;;;10.98;;
57635;SDS011;43465;50.728;4.160;2022-08-02T03:50:40;13.93;;;10.60;;
57635;SDS011;43465;50.728;4.160;2022-08-02T03:53:07;15.02;;;10.82;;
57635;SDS011;43465;50.728;4.160;2022-08-02T03:55:34;13.05;;;10.70;;
57635;SDS011;43465;50.728;4.160;2022-08-02T03:58:00;12.40;;;10.55;;
57635;SDS011;43465;50.728;4.160;2022-08-02T04:00:26;12.18;;;10.15;;
57635;SDS011;43465;50.728;4.160;2022-08-02T04:02:52;11.95;;;10.48;;
57635;SDS011;43465;50.728;4.160;2022-08-02T04:05:18;17.58;;;9.82;;
57635;SDS011;43465;50.728;4.160;2022-08-02T04:07:44;10.48;;;9.43;;
57635;SDS011;43465;50.728;4.160;2022-08-02T04:10:12;14.52;;;10.40;;
57635;SDS011;43465;50.728;4.160;2022-08-02T04:12:37;11.35;;;9.90;;
57635;SDS011;43465;50.728;4.160;2022-08-02T04:15:03;12.10;;;10.23;;
57635;SDS011;43465;50.728;4.160;2022-08-02T04:17:31;13.68;;;9.80;;
57635;SDS011;43465;50.728;4.160;2022-08-02T04:20:01;10.85;;;9.75;;
57635;SDS011;43465;50.728;4.160;2022-08-02T04:22:38;13.98;;;10.38;;
57635;SDS011;43465;50.728;4.160;2022-08-02T04:25:09;15.13;;;9.75;;
57635;SDS011;43465;50.728;4.160;2022-08-02T04:27:36;13.25;;;10.75;;
57635;SDS011;43465;50.728;4.160;2022-08-02T04:30:04;12.10;;;10.48;;
57635;SDS011;43465;50.728;4.160;2022-08-02T04:32:31;15.55;;;11.55;;
57635;SDS011;43465;50.728;4.160;2022-08-02T04:34:57;13.63;;;10.38;;
57635;SDS011;43465;50.728;4.160;2022-08-02T04:37:23;16.30;;;10.95;;
57635;SDS011;43465;50.728;4.160;2022-08-02T04:39:50;13.20;;;10.70;;
57635;SDS011;43465;50.728;4.160;2022-08-02T04:42:19;13.70;;;10.80;;
57635;SDS011;43465;50.728;4.160;2022-08-02T04:44:46;14.90;;;10.82;;
57635;SDS011;43465;50.728;4.160;2022-08-02T04:47:11;14.25;;;10.20;;
57635;SDS011;43465;50.728;4.160;2022-08-02T04:49:37;17.60;;;11.35;;
57635;SDS011;43465;50.728;4.160;2022-08-02T04:52:03;14.00;;;10.95;;
57635;SDS011;43465;50.728;4.160;2022-08-02T04:54:29;13.20;;;11.48;;
57635;SDS011;43465;50.728;4.160;2022-08-02T04:56:54;14.63;;;11.70;;
57635;SDS011;43465;50.728;4.160;2022-08-02T04:59:20;12.38;;;11.07;;
57635;SDS011;43465;50.728;4.160;2022-08-02T05:01:46;15.95;;;10.88;;
57635;SDS011;43465;50.728;4.160;2022-08-02T05:04:12;13.90;;;11.55;;
57635;SDS011;43465;50.728;4.160;2022-08-02T05:06:37;18.23;;;12.15;;
57635;SDS011;43465;50.728;4.160;2022-08-02T05:09:03;16.10;;;11.65;;
57635;SDS011;43465;50.728;4.160;2022-08-02T05:11:29;18.38;;;11.63;;
57635;SDS011;43465;50.728;4.160;2022-08-02T05:13:55;15.68;;;11.32;;
57635;SDS011;43465;50.728;4.160;2022-08-02T05:16:20;15.93;;;11.02;;
57635;SDS011;43465;50.728;4.160;2022-08-02T05:18:46;13.93;;;10.80;;
57635;SDS011;43465;50.728;4.160;2022-08-02T05:21:12;15.63;;;11.02;;
57635;SDS011;43465;50.728;4.160;2022-08-02T05:23:38;13.15;;;11.10;;
57635;SDS011;43465;50.728;4.160;2022-08-02T05:26:03;16.58;;;10.73;;
57635;SDS011;43465;50.728;4.160;2022-08-02T05:28:29;14.65;;;10.25;;
57635;SDS011;43465;50.728;4.160;2022-08-02T05:30:55;19.30;;;10.30;;
57635;SDS011;43465;50.728;4.160;2022-08-02T05:33:20;14.07;;;10.07;;
57635;SDS011;43465;50.728;4.160;2022-08-02T05:35:46;20.50;;;10.73;;
57635;SDS011;43465;50.728;4.160;2022-08-02T05:38:11;20.05;;;10.32;;
57635;SDS011;43465;50.728;4.160;2022-08-02T05:40:37;15.95;;;10.05;;
57635;SDS011;43465;50.728;4.160;2022-08-02T05:43:09;17.15;;;9.82;;
57635;SDS011;43465;50.728;4.160;2022-08-02T05:45:39;17.33;;;9.27;;
57635;SDS011;43465;50.728;4.160;2022-08-02T05:48:05;22.45;;;10.20;;
57635;SDS011;43465;50.728;4.160;2022-08-02T05:50:32;13.40;;;9.10;;
57635;SDS011;43465;50.728;4.160;2022-08-02T05:55:39;16.40;;;9.43;;
57635;SDS011;43465;50.728;4.160;2022-08-02T06:00:44;21.77;;;10.20;;
57635;SDS011;43465;50.728;4.160;2022-08-02T06:03:24;22.60;;;9.27;;
57635;SDS011;43465;50.728;4.160;2022-08-02T06:05:58;19.48;;;9.18;;
57635;SDS011;43465;50.728;4.160;2022-08-02T06:08:30;18.98;;;8.48;;
57635;SDS011;43465;50.728;4.160;2022-08-02T06:10:59;15.82;;;8.98;;
57635;SDS011;43465;50.728;4.160;2022-08-02T06:13:26;17.35;;;8.25;;
57635;SDS011;43465;50.728;4.160;2022-08-02T06:15:52;15.82;;;8.30;;
57635;SDS011;43465;50.728;4.160;2022-08-02T06:18:23;15.50;;;8.02;;
57635;SDS011;43465;50.728;4.160;2022-08-02T06:20:54;9.68;;;7.65;;
57635;SDS011;43465;50.728;4.160;2022-08-02T06:23:23;12.70;;;8.25;;
57635;SDS011;43465;50.728;4.160;2022-08-02T06:25:50;12.38;;;6.85;;
57635;SDS011;43465;50.728;4.160;2022-08-02T06:28:18;12.13;;;7.40;;
57635;SDS011;43465;50.728;4.160;2022-08-02T06:30:45;13.85;;;6.80;;
57635;SDS011;43465;50.728;4.160;2022-08-02T06:33:10;14.48;;;5.93;;
57635;SDS011;43465;50.728;4.160;2022-08-02T06:35:44;12.57;;;6.10;;
57635;SDS011;43465;50.728;4.160;2022-08-02T06:38:17;14.57;;;6.20;;
57635;SDS011;43465;50.728;4.160;2022-08-02T06:40:56;8.32;;;5.82;;
57635;SDS011;43465;50.728;4.160;2022-08-02T06:46:04;9.43;;;5.88;;
57635;SDS011;43465;50.728;4.160;2022-08-02T06:48:31;7.80;;;6.13;;
57635;SDS011;43465;50.728;4.160;2022-08-02T06:51:00;10.05;;;6.50;;
57635;SDS011;43465;50.728;4.160;2022-08-02T06:53:26;11.02;;;6.50;;
57635;SDS011;43465;50.728;4.160;2022-08-02T06:55:52;10.00;;;6.80;;
57635;SDS011;43465;50.728;4.160;2022-08-02T06:58:17;8.68;;;5.65;;
57635;SDS011;43465;50.728;4.160;2022-08-02T07:00:43;5.88;;;5.03;;
57635;SDS011;43465;50.728;4.160;2022-08-02T07:03:09;9.40;;;5.28;;
57635;SDS011;43465;50.728;4.160;2022-08-02T07:05:35;5.82;;;4.30;;
57635;SDS011;43465;50.728;4.160;2022-08-02T07:08:01;7.57;;;4.05;;
57635;SDS011;43465;50.728;4.160;2022-08-02T07:10:27;5.75;;;4.63;;
57635;SDS011;43465;50.728;4.160;2022-08-02T07:12:52;7.45;;;4.50;;
57635;SDS011;43465;50.728;4.160;2022-08-02T07:15:18;6.28;;;4.28;;
57635;SDS011;43465;50.728;4.160;2022-08-02T07:17:44;7.18;;;4.60;;
57635;SDS011;43465;50.728;4.160;2022-08-02T07:20:10;6.97;;;4.40;;
57635;SDS011;43465;50.728;4.160;2022-08-02T07:22:37;8.45;;;4.50;;
57635;SDS011;43465;50.728;4.160;2022-08-02T07:25:03;6.65;;;4.10;;
57635;SDS011;43465;50.728;4.160;2022-08-02T07:27:29;11.35;;;4.43;;
57635;SDS011;43465;50.728;4.160;2022-08-02T07:29:55;8.40;;;4.57;;
57635;SDS011;43465;50.728;4.160;2022-08-02T07:32:27;12.10;;;4.82;;
57635;SDS011;43465;50.728;4.160;2022-08-02T07:37:20;8.55;;;4.47;;
57635;SDS011;43465;50.728;4.160;2022-08-02T07:39:53;9.60;;;4.50;;
57635;SDS011;43465;50.728;4.160;2022-08-02T07:42:18;4.47;;;3.92;;
57635;SDS011;43465;50.728;4.160;2022-08-02T07:44:44;7.72;;;4.57;;
57635;SDS011;43465;50.728;4.160;2022-08-02T07:47:10;5.45;;;4.85;;
57635;SDS011;43465;50.728;4.160;2022-08-02T07:49:35;5.38;;;4.30;;
57635;SDS011;43465;50.728;4.160;2022-08-02T07:52:01;5.45;;;3.83;;
57635;SDS011;43465;50.728;4.160;2022-08-02T07:54:27;7.43;;;3.72;;
57635;SDS011;43465;50.728;4.160;2022-08-02T07:56:53;9.00;;;4.13;;
57635;SDS011;43465;50.728;4.160;2022-08-02T07:59:19;5.65;;;3.70;;
57635;SDS011;43465;50.728;4.160;2022-08-02T08:01:45;6.47;;;3.33;;
57635;SDS011;43465;50.728;4.160;2022-08-02T08:04:10;6.18;;;3.13;;
57635;SDS011;43465;50.728;4.160;2022-08-02T08:06:36;10.77;;;3.55;;
57635;SDS011;43465;50.728;4.160;2022-08-02T08:09:02;3.13;;;2.60;;
57635;SDS011;43465;50.728;4.160;2022-08-02T08:11:27;6.47;;;3.50;;
57635;SDS011;43465;50.728;4.160;2022-08-02T08:13:53;8.02;;;3.30;;
57635;SDS011;43465;50.728;4.160;2022-08-02T08:16:19;6.47;;;2.78;;
57635;SDS011;43465;50.728;4.160;2022-08-02T08:18:45;9.00;;;3.20;;
57635;SDS011;43465;50.728;4.160;2022-08-02T08:21:11;9.02;;;2.88;;
57635;SDS011;43465;50.728;4.160;2022-08-02T08:23:36;8.30;;;3.70;;
57635;SDS011;43465;50.728;4.160;2022-08-02T08:26:04;7.00;;;3.03;;
57635;SDS011;43465;50.728;4.160;2022-08-02T08:28:29;5.45;;;2.88;;
57635;SDS011;43465;50.728;4.160;2022-08-02T08:30:55;4.28;;;2.90;;
57635;SDS011;43465;50.728;4.160;2022-08-02T08:33:21;4.65;;;2.78;;
57635;SDS011;43465;50.728;4.160;2022-08-02T08:35:47;2.92;;;2.65;;
57635;SDS011;43465;50.728;4.160;2022-08-02T08:38:12;4.60;;;2.80;;
57635;SDS011;43465;50.728;4.160;2022-08-02T08:40:40;7.25;;;3.03;;
57635;SDS011;43465;50.728;4.160;2022-08-02T08:43:06;5.65;;;2.78;;
57635;SDS011;43465;50.728;4.160;2022-08-02T08:45:31;5.60;;;3.08;;
57635;SDS011;43465;50.728;4.160;2022-08-02T08:48:04;4.70;;;3.50;;
57635;SDS011;43465;50.728;4.160;2022-08-02T08:50:34;5.25;;;3.25;;
57635;SDS011;43465;50.728;4.160;2022-08-02T08:53:04;8.02;;;3.78;;
57635;SDS011;43465;50.728;4.160;2022-08-02T08:55:33;7.03;;;3.58;;
57635;SDS011;43465;50.728;4.160;2022-08-02T08:58:00;7.00;;;3.42;;
57635;SDS011;43465;50.728;4.160;2022-08-02T09:00:28;7.85;;;3.30;;
57635;SDS011;43465;50.728;4.160;2022-08-02T09:02:55;7.03;;;2.88;;
57635;SDS011;43465;50.728;4.160;2022-08-02T09:05:22;7.63;;;3.13;;
57635;SDS011;43465;50.728;4.160;2022-08-02T09:07:49;5.60;;;2.97;;
57635;SDS011;43465;50.728;4.160;2022-08-02T09:13:06;4.20;;;2.97;;
57635;SDS011;43465;50.728;4.160;2022-08-02T09:15:40;3.47;;;2.80;;
57635;SDS011;43465;50.728;4.160;2022-08-02T09:18:08;6.78;;;2.75;;
57635;SDS011;43465;50.728;4.160;2022-08-02T09:20:34;4.63;;;2.70;;
57635;SDS011;43465;50.728;4.160;2022-08-02T09:23:15;3.88;;;2.80;;
57635;SDS011;43465;50.728;4.160;2022-08-02T09:25:42;4.65;;;2.85;;
57635;SDS011;43465;50.728;4.160;2022-08-02T09:28:29;6.15;;;2.97;;
57635;SDS011;43465;50.728;4.160;2022-08-02T09:31:04;4.15;;;3.08;;
57635;SDS011;43465;50.728;4.160;2022-08-02T09:33:32;5.05;;;2.80;;
57635;SDS011;43465;50.728;4.160;2022-08-02T09:35:59;8.30;;;2.45;;
57635;SDS011;43465;50.728;4.160;2022-08-02T09:38:26;3.22;;;2.67;;
57635;SDS011;43465;50.728;4.160;2022-08-02T09:40:52;6.22;;;2.72;;
57635;SDS011;43465;50.728;4.160;2022-08-02T09:43:18;5.18;;;2.30;;
57635;SDS011;43465;50.728;4.160;2022-08-02T09:45:44;6.35;;;2.40;;
57635;SDS011;43465;50.728;4.160;2022-08-02T09:48:11;5.15;;;2.67;;
57635;SDS011;43465;50.728;4.160;2022-08-02T09:50:37;3.00;;;2.15;;
57635;SDS011;43465;50.728;4.160;2022-08-02T09:53:04;7.35;;;2.42;;
57635;SDS011;43465;50.728;4.160;2022-08-02T09:55:35;6.38;;;2.05;;
57635;SDS011;43465;50.728;4.160;2022-08-02T09:58:17;5.43;;;2.15;;
57635;SDS011;43465;50.728;4.160;2022-08-02T10:00:53;3.92;;;2.50;;
57635;SDS011;43465;50.728;4.160;2022-08-02T10:03:19;3.25;;;2.30;;
57635;SDS011;43465;50.728;4.160;2022-08-02T10:05:47;3.55;;;2.10;;
57635;SDS011;43465;50.728;4.160;2022-08-02T10:08:18;6.70;;;2.20;;
57635;SDS011;43465;50.728;4.160;2022-08-02T10:10:45;3.33;;;2.00;;
57635;SDS011;43465;50.728;4.160;2022-08-02T10:13:11;3.38;;;1.98;;
57635;SDS011;43465;50.728;4.160;2022-08-02T10:15:38;4.53;;;2.20;;
57635;SDS011;43465;50.728;4.160;2022-08-02T10:18:05;5.03;;;2.10;;
57635;SDS011;43465;50.728;4.160;2022-08-02T10:20:32;4.53;;;1.88;;
57635;SDS011;43465;50.728;4.160;2022-08-02T10:23:02;6.72;;;2.00;;
57635;SDS011;43465;50.728;4.160;2022-08-02T10:25:29;10.65;;;2.13;;
57635;SDS011;43465;50.728;4.160;2022-08-02T10:27:56;7.53;;;2.20;;
57635;SDS011;43465;50.728;4.160;2022-08-02T10:30:22;4.07;;;1.92;;
57635;SDS011;43465;50.728;4.160;2022-08-02T10:32:49;4.50;;;1.70;;
57635;SDS011;43465;50.728;4.160;2022-08-02T10:35:20;5.45;;;1.80;;
57635;SDS011;43465;50.728;4.160;2022-08-02T10:37:48;3.33;;;1.90;;
57635;SDS011;43465;50.728;4.160;2022-08-02T10:40:21;6.00;;;2.33;;
57635;SDS011;43465;50.728;4.160;2022-08-02T10:42:48;4.07;;;2.20;;
57635;SDS011;43465;50.728;4.160;2022-08-02T10:45:17;8.43;;;2.15;;
57635;SDS011;43465;50.728;4.160;2022-08-02T10:53:20;5.57;;;2.10;;
57635;SDS011;43465;50.728;4.160;2022-08-02T10:55:47;3.28;;;2.03;;
57635;SDS011;43465;50.728;4.160;2022-08-02T10:58:20;8.77;;;2.25;;
57635;SDS011;43465;50.728;4.160;2022-08-02T11:00:49;3.65;;;1.98;;
57635;SDS011;43465;50.728;4.160;2022-08-02T11:06:06;4.68;;;1.77;;
57635;SDS011;43465;50.728;4.160;2022-08-02T11:08:34;4.40;;;2.00;;
57635;SDS011;43465;50.728;4.160;2022-08-02T11:19:20;4.88;;;1.85;;
57635;SDS011;43465;50.728;4.160;2022-08-02T11:22:06;4.38;;;1.92;;
57635;SDS011;43465;50.728;4.160;2022-08-02T11:24:43;2.95;;;1.40;;
57635;SDS011;43465;50.728;4.160;2022-08-02T11:27:18;6.72;;;1.45;;
57635;SDS011;43465;50.728;4.160;2022-08-02T11:29:45;2.88;;;1.48;;
57635;SDS011;43465;50.728;4.160;2022-08-02T11:32:20;1.60;;;1.40;;
57635;SDS011;43465;50.728;4.160;2022-08-02T11:34:52;2.33;;;1.20;;
57635;SDS011;43465;50.728;4.160;2022-08-02T11:37:33;3.95;;;1.60;;
57635;SDS011;43465;50.728;4.160;2022-08-02T11:40:00;2.83;;;1.70;;
57635;SDS011;43465;50.728;4.160;2022-08-02T11:42:34;1.88;;;1.63;;
57635;SDS011;43465;50.728;4.160;2022-08-02T11:45:02;2.30;;;1.40;;
57635;SDS011;43465;50.728;4.160;2022-08-02T11:47:29;3.38;;;1.30;;
57635;SDS011;43465;50.728;4.160;2022-08-02T11:50:08;4.07;;;1.30;;
57635;SDS011;43465;50.728;4.160;2022-08-02T11:52:35;1.40;;;1.30;;
57635;SDS011;43465;50.728;4.160;2022-08-02T11:55:01;2.22;;;1.30;;
57635;SDS011;43465;50.728;4.160;2022-08-02T11:57:28;4.85;;;1.60;;
57635;SDS011;43465;50.728;4.160;2022-08-02T11:59:55;1.92;;;1.27;;
57635;SDS011;43465;50.728;4.160;2022-08-02T12:02:22;2.35;;;1.50;;
57635;SDS011;43465;50.728;4.160;2022-08-02T12:04:54;2.13;;;1.42;;
57635;SDS011;43465;50.728;4.160;2022-08-02T12:07:39;3.28;;;1.33;;
57635;SDS011;43465;50.728;4.160;2022-08-02T12:10:06;3.65;;;1.40;;
57635;SDS011;43465;50.728;4.160;2022-08-02T12:18:10;1.65;;;1.38;;
57635;SDS011;43465;50.728;4.160;2022-08-02T12:20:56;4.40;;;1.60;;
57635;SDS011;43465;50.728;4.160;2022-08-02T12:23:22;2.25;;;1.48;;
57635;SDS011;43465;50.728;4.160;2022-08-02T12:26:07;2.78;;;1.30;;
57635;SDS011;43465;50.728;4.160;2022-08-02T12:28:34;3.63;;;1.33;;
57635;SDS011;43465;50.728;4.160;2022-08-02T12:31:03;2.60;;;1.20;;
57635;SDS011;43465;50.728;4.160;2022-08-02T12:33:43;2.58;;;1.40;;
57635;SDS011;43465;50.728;4.160;2022-08-02T12:38:55;1.98;;;1.30;;
57635;SDS011;43465;50.728;4.160;2022-08-02T12:41:25;3.00;;;1.40;;
57635;SDS011;43465;50.728;4.160;2022-08-02T12:43:53;2.88;;;1.33;;
57635;SDS011;43465;50.728;4.160;2022-08-02T12:46:20;3.38;;;1.35;;
57635;SDS011;43465;50.728;4.160;2022-08-02T12:48:47;2.03;;;1.30;;
57635;SDS011;43465;50.728;4.160;2022-08-02T12:51:20;1.98;;;1.15;;
57635;SDS011;43465;50.728;4.160;2022-08-02T12:53:54;2.80;;;1.50;;
57635;SDS011;43465;50.728;4.160;2022-08-02T12:56:36;3.95;;;1.17;;
57635;SDS011;43465;50.728;4.160;2022-08-02T12:59:02;2.72;;;1.42;;
57635;SDS011;43465;50.728;4.160;2022-08-02T13:01:28;2.58;;;1.10;;
57635;SDS011;43465;50.728;4.160;2022-08-02T13:03:55;1.48;;;1.20;;
57635;SDS011;43465;50.728;4.160;2022-08-02T13:06:21;1.90;;;1.35;;
57635;SDS011;43465;50.728;4.160;2022-08-02T13:08:48;8.57;;;1.88;;
57635;SDS011;43465;50.728;4.160;2022-08-02T13:11:14;13.82;;;1.70;;
57635;SDS011;43465;50.728;4.160;2022-08-02T13:13:40;4.15;;;1.20;;
57635;SDS011;43465;50.728;4.160;2022-08-02T13:16:07;1.30;;;1.20;;
57635;SDS011;43465;50.728;4.160;2022-08-02T13:18:34;2.72;;;1.10;;
57635;SDS011;43465;50.728;4.160;2022-08-02T13:21:00;5.65;;;1.60;;
57635;SDS011;43465;50.728;4.160;2022-08-02T13:23:26;2.25;;;1.00;;
57635;SDS011;43465;50.728;4.160;2022-08-02T13:25:51;5.25;;;1.20;;
57635;SDS011;43465;50.728;4.160;2022-08-02T13:28:20;2.00;;;1.00;;
57635;SDS011;43465;50.728;4.160;2022-08-02T13:30:46;2.30;;;1.08;;
57635;SDS011;43465;50.728;4.160;2022-08-02T13:33:13;5.47;;;1.33;;
57635;SDS011;43465;50.728;4.160;2022-08-02T13:35:39;1.73;;;1.05;;
57635;SDS011;43465;50.728;4.160;2022-08-02T13:38:05;1.40;;;1.08;;
57635;SDS011;43465;50.728;4.160;2022-08-02T13:40:31;2.53;;;0.90;;
57635;SDS011;43465;50.728;4.160;2022-08-02T13:42:57;2.45;;;1.15;;
57635;SDS011;43465;50.728;4.160;2022-08-02T13:45:23;2.65;;;1.10;;
57635;SDS011;43465;50.728;4.160;2022-08-02T13:47:49;3.35;;;1.08;;
57635;SDS011;43465;50.728;4.160;2022-08-02T13:50:14;6.00;;;1.20;;
57635;SDS011;43465;50.728;4.160;2022-08-02T13:52:40;6.03;;;1.58;;
57635;SDS011;43465;50.728;4.160;2022-08-02T13:55:06;4.22;;;1.05;;
57635;SDS011;43465;50.728;4.160;2022-08-02T13:57:32;6.47;;;1.13;;
57635;SDS011;43465;50.728;4.160;2022-08-02T13:59:58;1.17;;;1.00;;
57635;SDS011;43465;50.728;4.160;2022-08-02T14:02:24;4.45;;;1.20;;
57635;SDS011;43465;50.728;4.160;2022-08-02T14:04:52;3.28;;;1.00;;
57635;SDS011;43465;50.728;4.160;2022-08-02T14:07:17;2.30;;;1.10;;
57635;SDS011;43465;50.728;4.160;2022-08-02T14:09:43;5.32;;;1.00;;
57635;SDS011;43465;50.728;4.160;2022-08-02T14:12:09;23.00;;;2.17;;
57635;SDS011;43465;50.728;4.160;2022-08-02T14:14:35;4.68;;;1.13;;
57635;SDS011;43465;50.728;4.160;2022-08-02T14:17:00;4.57;;;1.00;;
57635;SDS011;43465;50.728;4.160;2022-08-02T14:19:26;3.90;;;0.90;;
57635;SDS011;43465;50.728;4.160;2022-08-02T14:21:52;3.17;;;1.02;;
57635;SDS011;43465;50.728;4.160;2022-08-02T14:24:18;2.70;;;1.33;;
57635;SDS011;43465;50.728;4.160;2022-08-02T14:26:45;4.22;;;1.00;;
57635;SDS011;43465;50.728;4.160;2022-08-02T14:29:12;3.03;;;0.90;;
57635;SDS011;43465;50.728;4.160;2022-08-02T14:31:38;2.22;;;1.05;;
57635;SDS011;43465;50.728;4.160;2022-08-02T14:34:04;1.10;;;0.80;;
57635;SDS011;43465;50.728;4.160;2022-08-02T14:36:30;5.97;;;1.05;;
57635;SDS011;43465;50.728;4.160;2022-08-02T14:38:55;2.08;;;0.90;;
57635;SDS011;43465;50.728;4.160;2022-08-02T14:41:21;3.17;;;1.17;;
57635;SDS011;43465;50.728;4.160;2022-08-02T14:43:47;2.25;;;1.00;;
57635;SDS011;43465;50.728;4.160;2022-08-02T14:46:28;5.22;;;1.00;;
57635;SDS011;43465;50.728;4.160;2022-08-02T14:48:54;5.00;;;1.10;;
57635;SDS011;43465;50.728;4.160;2022-08-02T14:51:19;2.40;;;0.82;;
57635;SDS011;43465;50.728;4.160;2022-08-02T14:53:45;2.58;;;0.95;;
57635;SDS011;43465;50.728;4.160;2022-08-02T14:56:11;2.15;;;0.90;;
57635;SDS011;43465;50.728;4.160;2022-08-02T14:58:37;2.15;;;0.90;;
57635;SDS011;43465;50.728;4.160;2022-08-02T15:01:03;2.65;;;1.00;;
57635;SDS011;43465;50.728;4.160;2022-08-02T15:03:28;3.83;;;0.98;;
57635;SDS011;43465;50.728;4.160;2022-08-02T15:05:54;2.75;;;1.08;;
57635;SDS011;43465;50.728;4.160;2022-08-02T15:08:20;2.85;;;1.20;;
57635;SDS011;43465;50.728;4.160;2022-08-02T15:10:46;2.08;;;1.10;;
57635;SDS011;43465;50.728;4.160;2022-08-02T15:13:11;2.38;;;1.13;;
57635;SDS011;43465;50.728;4.160;2022-08-02T15:15:37;5.05;;;1.17;;
57635;SDS011;43465;50.728;4.160;2022-08-02T15:18:03;2.83;;;0.90;;
57635;SDS011;43465;50.728;4.160;2022-08-02T15:20:29;5.82;;;1.10;;
57635;SDS011;43465;50.728;4.160;2022-08-02T15:22:54;3.55;;;1.00;;
57635;SDS011;43465;50.728;4.160;2022-08-02T15:25:20;4.78;;;1.20;;
57635;SDS011;43465;50.728;4.160;2022-08-02T15:27:46;2.67;;;1.20;;
57635;SDS011;43465;50.728;4.160;2022-08-02T15:30:12;3.70;;;1.10;;
57635;SDS011;43465;50.728;4.160;2022-08-02T15:32:38;3.63;;;0.90;;
57635;SDS011;43465;50.728;4.160;2022-08-02T15:35:03;6.18;;;1.02;;
57635;SDS011;43465;50.728;4.160;2022-08-02T15:37:30;5.00;;;1.00;;
57635;SDS011;43465;50.728;4.160;2022-08-02T15:39:58;6.90;;;1.00;;